Bluffton, AR

8:02 AM CDT on July 28, 2014 (GMT -0500)
RAWS ODEN AR US (MODEA4) Elev 896 ft | 34.62 °N, 93.81 °W | Change Station

Current weather conditions updated 35 minutes ago

Clear
Clear
71 °F
Feels Like 71 °F
N
1
Wind Variable Wind from NE
Gusts 2.0 mph

Today is forecast to be Cooler than yesterday.

Today
High -- | Low -- °F
--% Chance of Precip.
Yesterday
High -- | Low -- °F
Precip. -- in
6:21 AM 8:20 PM
New Moon, 2% visible
Pressure 30.07 in
Visibility 10.0 miles
Clouds Clear
Dew Point 67 °F
Humidity 86%
Rainfall 0.00 in
Snow Depth Not available.
UV 1 out of 12
Pollen 5.30 out of 12
Air Quality Not available.
Flu Activity Not available.
METAR KMWT 281253Z AUTO 00000KT 10SM CLR 24/20 A3011 RMK AO2 SLP183 T02440200 $

More Conditions Fewer Conditions

Pressure 30.07 in
Visibility 10.0 miles
Clouds Clear
Dew Point 67 °F
Humidity 86%
Rainfall 0.00 in
Snow Depth Not available.
UV 1 out of 12
Pollen 5.30 out of 12
Air Quality Not available.
Flu Activity Not available.
METAR KMWT 281253Z AUTO 00000KT 10SM CLR 24/20 A3011 RMK AO2 SLP183 T02440200 $

More Conditions Fewer Conditions

10-Day Weather Forecast

Almanac

Astronomy

Jul. 28, 2014 Rise Set
Actual Time 6:21 AM CDT 8:20 PM CDT
Civil Twilight 5:53 AM CDT 8:48 PM CDT
Nautical Twilight 5:18 AM CDT 9:22 PM CDT
Astronomical Twilight 4:42 AM CDT 9:58 PM CDT
Moon 7:57 AM CDT 9:09 PM CDT
Length of Visible Light 14h 55m
Length of Day
13h 59m
Tomorrow will be 1m 32s shorter.
New Moon, 2% of the Moon is Illuminated
Today
New Moon
Aug 3
First Quarter
Aug 10
Full
Aug 17
Last Quarter
Aug 25
New

Today's Extremes

State Highs State Lows

Community

WunderPhotos

Upload Photos

1,738,317 photos uploaded!

Nearby

Snow Depth

Station Depth Elevation
No new snow has been reported.

Earthquake Activity

City Distance Mag. Time & Date
No recent earthquake activity has been reported nearby.
Minimum magnitude displayed is 2.5.

Coastal Water Temperatures

Place Temperature
No Stations Reporting

Nearby Weather Stations

Station Location Temp. Dew Point Humidity Wind Precip. Elev Updated Type
RAWS ODEN AR, Oden, AR 71 °F 67 °F 86% NE  at  1 mph 0.00 in / hr 896 ft 7:27 AM CDT MADIS
Booneville Municipal Airport, Booneville, AR 70.8 °F 69 °F 95% WNW  at  0.0 mph 0.00 in / hr 460 ft 7:33 AM CDT Normal
RAWS BOONEVILLE AR, Booneville, AR 69 °F 66 °F 91% NE  at  1 mph 0.00 in / hr 342 ft 7:02 AM CDT MADIS

Show More Stations Show Fewer Stations